sensor_id;sensor_type;location;lat;lon;timestamp;temperature;humidity
68766;DHT22;55756;45.582;11.484;2023-02-21T00:00:10;12.70;57.00
68766;DHT22;55756;45.582;11.484;2023-02-21T00:02:55;12.80;57.30
68766;DHT22;55756;45.582;11.484;2023-02-21T00:05:39;12.90;56.80
68766;DHT22;55756;45.582;11.484;2023-02-21T00:08:24;12.70;57.40
68766;DHT22;55756;45.582;11.484;2023-02-21T00:11:08;12.70;57.60
68766;DHT22;55756;45.582;11.484;2023-02-21T00:13:53;12.60;57.90
68766;DHT22;55756;45.582;11.484;2023-02-21T00:16:37;12.60;57.80
68766;DHT22;55756;45.582;11.484;2023-02-21T00:19:21;12.50;58.10
68766;DHT22;55756;45.582;11.484;2023-02-21T00:22:06;12.60;57.90
68766;DHT22;55756;45.582;11.484;2023-02-21T00:24:50;12.60;57.80
68766;DHT22;55756;45.582;11.484;2023-02-21T00:27:34;12.60;57.90
68766;DHT22;55756;45.582;11.484;2023-02-21T00:30:19;12.50;57.70
68766;DHT22;55756;45.582;11.484;2023-02-21T00:33:03;12.50;57.80
68766;DHT22;55756;45.582;11.484;2023-02-21T00:35:48;12.60;57.70
68766;DHT22;55756;45.582;11.484;2023-02-21T00:38:32;12.60;57.40
68766;DHT22;55756;45.582;11.484;2023-02-21T00:41:17;12.60;57.50
68766;DHT22;55756;45.582;11.484;2023-02-21T00:44:01;12.80;56.90
68766;DHT22;55756;45.582;11.484;2023-02-21T00:46:45;12.80;56.60
68766;DHT22;55756;45.582;11.484;2023-02-21T00:49:29;12.80;56.20
68766;DHT22;55756;45.582;11.484;2023-02-21T00:52:14;12.80;56.30
68766;DHT22;55756;45.582;11.484;2023-02-21T00:54:59;12.70;56.30
68766;DHT22;55756;45.582;11.484;2023-02-21T00:57:44;12.70;56.70
68766;DHT22;55756;45.582;11.484;2023-02-21T01:00:28;12.70;56.10
68766;DHT22;55756;45.582;11.484;2023-02-21T01:03:12;12.60;56.40
68766;DHT22;55756;45.582;11.484;2023-02-21T01:05:57;12.60;56.40
68766;DHT22;55756;45.582;11.484;2023-02-21T01:08:42;12.60;56.60
68766;DHT22;55756;45.582;11.484;2023-02-21T01:11:27;12.50;56.80
68766;DHT22;55756;45.582;11.484;2023-02-21T01:14:12;12.50;56.90
68766;DHT22;55756;45.582;11.484;2023-02-21T01:16:58;12.50;57.30
68766;DHT22;55756;45.582;11.484;2023-02-21T01:19:43;12.50;57.30
68766;DHT22;55756;45.582;11.484;2023-02-21T01:22:27;12.40;57.20
68766;DHT22;55756;45.582;11.484;2023-02-21T01:25:13;12.30;57.40
68766;DHT22;55756;45.582;11.484;2023-02-21T01:27:58;12.20;57.60
68766;DHT22;55756;45.582;11.484;2023-02-21T01:30:45;12.30;57.50
68766;DHT22;55756;45.582;11.484;2023-02-21T01:33:36;12.30;57.20
68766;DHT22;55756;45.582;11.484;2023-02-21T01:36:21;12.20;57.40
68766;DHT22;55756;45.582;11.484;2023-02-21T01:39:05;12.10;57.50
68766;DHT22;55756;45.582;11.484;2023-02-21T01:41:49;12.30;57.60
68766;DHT22;55756;45.582;11.484;2023-02-21T01:44:37;12.30;57.00
68766;DHT22;55756;45.582;11.484;2023-02-21T01:47:22;12.20;56.80
68766;DHT22;55756;45.582;11.484;2023-02-21T01:52:59;12.10;57.20
68766;DHT22;55756;45.582;11.484;2023-02-21T01:55:45;12.20;57.10
68766;DHT22;55756;45.582;11.484;2023-02-21T01:58:31;12.30;56.60
68766;DHT22;55756;45.582;11.484;2023-02-21T02:01:24;12.20;56.50
68766;DHT22;55756;45.582;11.484;2023-02-21T02:04:09;12.30;56.40
68766;DHT22;55756;45.582;11.484;2023-02-21T02:06:54;12.40;56.00
68766;DHT22;55756;45.582;11.484;2023-02-21T02:09:39;12.30;56.00
68766;DHT22;55756;45.582;11.484;2023-02-21T02:12:49;12.30;56.10
68766;DHT22;55756;45.582;11.484;2023-02-21T02:18:17;12.20;56.80
68766;DHT22;55756;45.582;11.484;2023-02-21T02:24:17;12.10;57.30
68766;DHT22;55756;45.582;11.484;2023-02-21T02:35:28;12.40;56.20
68766;DHT22;55756;45.582;11.484;2023-02-21T02:41:08;12.40;56.00
68766;DHT22;55756;45.582;11.484;2023-02-21T02:43:59;12.20;56.50
68766;DHT22;55756;45.582;11.484;2023-02-21T02:46:29;12.20;56.90
68766;DHT22;55756;45.582;11.484;2023-02-21T02:49:19;12.10;57.10
68766;DHT22;55756;45.582;11.484;2023-02-21T02:51:47;12.10;57.20
68766;DHT22;55756;45.582;11.484;2023-02-21T02:54:14;12.00;57.10
68766;DHT22;55756;45.582;11.484;2023-02-21T02:56:40;12.00;57.10
68766;DHT22;55756;45.582;11.484;2023-02-21T02:59:33;12.00;57.20
68766;DHT22;55756;45.582;11.484;2023-02-21T03:07:46;11.90;57.10
68766;DHT22;55756;45.582;11.484;2023-02-21T03:15:40;11.90;57.30
68766;DHT22;55756;45.582;11.484;2023-02-21T03:18:17;12.10;56.70
68766;DHT22;55756;45.582;11.484;2023-02-21T03:20:46;12.00;56.90
68766;DHT22;55756;45.582;11.484;2023-02-21T03:23:17;12.00;56.80
68766;DHT22;55756;45.582;11.484;2023-02-21T03:25:44;12.10;56.30
68766;DHT22;55756;45.582;11.484;2023-02-21T03:28:12;12.10;56.30
68766;DHT22;55756;45.582;11.484;2023-02-21T03:30:41;12.30;56.00
68766;DHT22;55756;45.582;11.484;2023-02-21T03:33:07;12.30;55.60
68766;DHT22;55756;45.582;11.484;2023-02-21T03:35:33;12.20;55.20
68766;DHT22;55756;45.582;11.484;2023-02-21T03:37:59;12.20;55.30
68766;DHT22;55756;45.582;11.484;2023-02-21T03:40:31;12.20;55.10
68766;DHT22;55756;45.582;11.484;2023-02-21T03:43:00;11.90;55.60
68766;DHT22;55756;45.582;11.484;2023-02-21T03:45:31;11.70;55.90
68766;DHT22;55756;45.582;11.484;2023-02-21T03:48:10;11.70;56.50
68766;DHT22;55756;45.582;11.484;2023-02-21T03:50:37;11.70;56.20
68766;DHT22;55756;45.582;11.484;2023-02-21T03:53:04;11.60;56.20
68766;DHT22;55756;45.582;11.484;2023-02-21T03:55:34;11.50;56.00
68766;DHT22;55756;45.582;11.484;2023-02-21T03:58:04;11.50;56.20
68766;DHT22;55756;45.582;11.484;2023-02-21T04:00:35;11.40;56.50
68766;DHT22;55756;45.582;11.484;2023-02-21T04:03:01;11.40;56.70
68766;DHT22;55756;45.582;11.484;2023-02-21T04:05:49;11.50;56.60
68766;DHT22;55756;45.582;11.484;2023-02-21T04:08:19;11.40;56.60
68766;DHT22;55756;45.582;11.484;2023-02-21T04:10:44;11.50;56.40
68766;DHT22;55756;45.582;11.484;2023-02-21T04:13:11;11.50;56.30
68766;DHT22;55756;45.582;11.484;2023-02-21T04:15:41;11.40;56.50
68766;DHT22;55756;45.582;11.484;2023-02-21T04:18:07;11.30;56.50
68766;DHT22;55756;45.582;11.484;2023-02-21T04:20:35;11.30;56.70
68766;DHT22;55756;45.582;11.484;2023-02-21T04:23:03;11.30;56.30
68766;DHT22;55756;45.582;11.484;2023-02-21T04:25:28;11.30;56.70
68766;DHT22;55756;45.582;11.484;2023-02-21T04:28:00;11.40;56.60
68766;DHT22;55756;45.582;11.484;2023-02-21T04:30:26;11.60;56.10
68766;DHT22;55756;45.582;11.484;2023-02-21T04:32:52;11.40;56.50
68766;DHT22;55756;45.582;11.484;2023-02-21T04:35:18;11.40;56.70
68766;DHT22;55756;45.582;11.484;2023-02-21T04:37:44;11.40;56.60
68766;DHT22;55756;45.582;11.484;2023-02-21T04:40:12;11.30;56.10
68766;DHT22;55756;45.582;11.484;2023-02-21T04:42:37;11.20;56.10
68766;DHT22;55756;45.582;11.484;2023-02-21T04:45:03;11.10;56.90
68766;DHT22;55756;45.582;11.484;2023-02-21T04:47:29;11.00;57.10
68766;DHT22;55756;45.582;11.484;2023-02-21T04:49:55;11.00;57.30
68766;DHT22;55756;45.582;11.484;2023-02-21T04:52:21;11.10;57.20
68766;DHT22;55756;45.582;11.484;2023-02-21T04:54:47;11.10;57.40
68766;DHT22;55756;45.582;11.484;2023-02-21T04:57:14;11.00;57.20
68766;DHT22;55756;45.582;11.484;2023-02-21T04:59:40;10.90;57.20
68766;DHT22;55756;45.582;11.484;2023-02-21T05:02:06;10.90;57.30
68766;DHT22;55756;45.582;11.484;2023-02-21T05:04:36;10.90;57.10
68766;DHT22;55756;45.582;11.484;2023-02-21T05:07:03;10.90;57.20
68766;DHT22;55756;45.582;11.484;2023-02-21T05:09:29;11.00;56.90
68766;DHT22;55756;45.582;11.484;2023-02-21T05:11:55;11.00;56.40
68766;DHT22;55756;45.582;11.484;2023-02-21T05:14:20;11.00;56.50
68766;DHT22;55756;45.582;11.484;2023-02-21T05:16:46;11.00;56.70
68766;DHT22;55756;45.582;11.484;2023-02-21T05:19:12;10.90;56.90
68766;DHT22;55756;45.582;11.484;2023-02-21T05:21:38;11.00;56.70
68766;DHT22;55756;45.582;11.484;2023-02-21T05:24:06;10.90;56.40
68766;DHT22;55756;45.582;11.484;2023-02-21T05:26:35;10.90;56.80
68766;DHT22;55756;45.582;11.484;2023-02-21T05:29:02;10.80;56.70
68766;DHT22;55756;45.582;11.484;2023-02-21T05:31:28;10.80;56.30
68766;DHT22;55756;45.582;11.484;2023-02-21T05:33:54;10.80;56.30
68766;DHT22;55756;45.582;11.484;2023-02-21T05:36:20;10.80;56.40
68766;DHT22;55756;45.582;11.484;2023-02-21T05:38:49;10.70;56.80
68766;DHT22;55756;45.582;11.484;2023-02-21T05:41:16;10.70;57.30
68766;DHT22;55756;45.582;11.484;2023-02-21T05:43:46;10.80;57.10
68766;DHT22;55756;45.582;11.484;2023-02-21T05:46:26;10.80;56.80
68766;DHT22;55756;45.582;11.484;2023-02-21T05:48:52;10.70;56.70
68766;DHT22;55756;45.582;11.484;2023-02-21T05:51:19;10.70;56.50
68766;DHT22;55756;45.582;11.484;2023-02-21T05:53:45;10.60;56.80
68766;DHT22;55756;45.582;11.484;2023-02-21T05:56:11;10.70;56.60
68766;DHT22;55756;45.582;11.484;2023-02-21T05:58:37;10.70;56.90
68766;DHT22;55756;45.582;11.484;2023-02-21T06:01:03;10.70;57.20
68766;DHT22;55756;45.582;11.484;2023-02-21T06:03:29;10.70;57.40
68766;DHT22;55756;45.582;11.484;2023-02-21T06:05:55;10.70;57.60
68766;DHT22;55756;45.582;11.484;2023-02-21T06:08:21;10.70;57.90
68766;DHT22;55756;45.582;11.484;2023-02-21T06:10:46;10.70;58.20
68766;DHT22;55756;45.582;11.484;2023-02-21T06:13:12;10.80;57.80
68766;DHT22;55756;45.582;11.484;2023-02-21T06:15:38;10.80;57.60
68766;DHT22;55756;45.582;11.484;2023-02-21T06:18:03;10.80;57.50
68766;DHT22;55756;45.582;11.484;2023-02-21T06:20:29;10.80;57.60
68766;DHT22;55756;45.582;11.484;2023-02-21T06:22:55;10.80;57.70
68766;DHT22;55756;45.582;11.484;2023-02-21T06:25:21;10.80;57.30
68766;DHT22;55756;45.582;11.484;2023-02-21T06:27:46;10.80;56.70
68766;DHT22;55756;45.582;11.484;2023-02-21T06:30:12;10.70;56.80
68766;DHT22;55756;45.582;11.484;2023-02-21T06:32:38;10.60;56.50
68766;DHT22;55756;45.582;11.484;2023-02-21T06:35:04;10.60;57.20
68766;DHT22;55756;45.582;11.484;2023-02-21T06:37:30;10.50;57.60
68766;DHT22;55756;45.582;11.484;2023-02-21T06:39:56;10.50;58.10
68766;DHT22;55756;45.582;11.484;2023-02-21T06:42:21;10.50;58.60
68766;DHT22;55756;45.582;11.484;2023-02-21T06:44:48;10.60;58.70
68766;DHT22;55756;45.582;11.484;2023-02-21T06:47:15;10.70;58.20
68766;DHT22;55756;45.582;11.484;2023-02-21T06:49:41;10.70;58.10
68766;DHT22;55756;45.582;11.484;2023-02-21T06:52:08;10.80;57.90
68766;DHT22;55756;45.582;11.484;2023-02-21T06:54:34;11.00;57.60
68766;DHT22;55756;45.582;11.484;2023-02-21T06:56:59;11.10;57.30
68766;DHT22;55756;45.582;11.484;2023-02-21T06:59:29;11.00;57.90
68766;DHT22;55756;45.582;11.484;2023-02-21T07:01:55;10.90;58.00
68766;DHT22;55756;45.582;11.484;2023-02-21T07:04:22;11.00;58.20
68766;DHT22;55756;45.582;11.484;2023-02-21T07:06:48;11.00;57.60
68766;DHT22;55756;45.582;11.484;2023-02-21T07:09:14;10.90;57.60
68766;DHT22;55756;45.582;11.484;2023-02-21T07:11:40;11.00;57.10
68766;DHT22;55756;45.582;11.484;2023-02-21T07:14:06;11.00;57.40
68766;DHT22;55756;45.582;11.484;2023-02-21T07:16:32;10.90;57.60
68766;DHT22;55756;45.582;11.484;2023-02-21T07:18:58;10.90;57.70
68766;DHT22;55756;45.582;11.484;2023-02-21T07:21:25;10.80;57.80
68766;DHT22;55756;45.582;11.484;2023-02-21T07:23:51;10.90;57.70
68766;DHT22;55756;45.582;11.484;2023-02-21T07:26:17;11.00;57.90
68766;DHT22;55756;45.582;11.484;2023-02-21T07:28:45;11.10;58.40
68766;DHT22;55756;45.582;11.484;2023-02-21T07:31:11;11.10;58.40
68766;DHT22;55756;45.582;11.484;2023-02-21T07:33:37;11.20;58.30
68766;DHT22;55756;45.582;11.484;2023-02-21T07:36:03;11.10;58.50
68766;DHT22;55756;45.582;11.484;2023-02-21T07:38:29;11.10;58.80
68766;DHT22;55756;45.582;11.484;2023-02-21T07:41:01;11.10;59.10
68766;DHT22;55756;45.582;11.484;2023-02-21T07:43:28;11.10;59.70
68766;DHT22;55756;45.582;11.484;2023-02-21T07:45:55;11.10;60.00
68766;DHT22;55756;45.582;11.484;2023-02-21T07:48:21;11.20;59.70
68766;DHT22;55756;45.582;11.484;2023-02-21T07:50:47;11.30;59.70
68766;DHT22;55756;45.582;11.484;2023-02-21T07:53:15;11.50;59.70
68766;DHT22;55756;45.582;11.484;2023-02-21T07:55:41;11.70;59.30
68766;DHT22;55756;45.582;11.484;2023-02-21T07:58:07;11.60;59.50
68766;DHT22;55756;45.582;11.484;2023-02-21T08:00:33;11.60;59.80
68766;DHT22;55756;45.582;11.484;2023-02-21T08:02:59;11.70;59.90
68766;DHT22;55756;45.582;11.484;2023-02-21T08:05:25;11.80;59.80
68766;DHT22;55756;45.582;11.484;2023-02-21T08:07:51;11.70;60.20
68766;DHT22;55756;45.582;11.484;2023-02-21T08:10:23;11.80;60.10
68766;DHT22;55756;45.582;11.484;2023-02-21T08:12:49;11.90;60.20
68766;DHT22;55756;45.582;11.484;2023-02-21T08:15:16;11.80;60.20
68766;DHT22;55756;45.582;11.484;2023-02-21T08:17:42;11.90;60.40
68766;DHT22;55756;45.582;11.484;2023-02-21T08:20:08;11.90;60.70
68766;DHT22;55756;45.582;11.484;2023-02-21T08:22:35;12.00;60.60
68766;DHT22;55756;45.582;11.484;2023-02-21T08:25:01;12.20;60.50
68766;DHT22;55756;45.582;11.484;2023-02-21T08:27:27;12.20;60.40
68766;DHT22;55756;45.582;11.484;2023-02-21T08:29:56;12.30;60.40
68766;DHT22;55756;45.582;11.484;2023-02-21T08:32:22;12.40;60.10
68766;DHT22;55756;45.582;11.484;2023-02-21T08:34:48;12.50;60.20
68766;DHT22;55756;45.582;11.484;2023-02-21T08:37:14;12.60;60.40
68766;DHT22;55756;45.582;11.484;2023-02-21T08:39:48;12.50;60.70
68766;DHT22;55756;45.582;11.484;2023-02-21T08:42:15;12.60;60.70
68766;DHT22;55756;45.582;11.484;2023-02-21T08:44:45;12.70;60.80
68766;DHT22;55756;45.582;11.484;2023-02-21T08:47:15;12.70;60.50
68766;DHT22;55756;45.582;11.484;2023-02-21T08:49:45;12.70;60.40
68766;DHT22;55756;45.582;11.484;2023-02-21T08:52:13;12.60;61.10
68766;DHT22;55756;45.582;11.484;2023-02-21T08:54:43;12.60;61.30
68766;DHT22;55756;45.582;11.484;2023-02-21T08:57:09;12.60;61.20
68766;DHT22;55756;45.582;11.484;2023-02-21T08:59:39;12.70;61.20
68766;DHT22;55756;45.582;11.484;2023-02-21T09:02:17;12.80;61.40
68766;DHT22;55756;45.582;11.484;2023-02-21T09:04:44;12.90;61.10
68766;DHT22;55756;45.582;11.484;2023-02-21T09:07:14;13.00;61.20
68766;DHT22;55756;45.582;11.484;2023-02-21T09:09:40;13.00;61.20
68766;DHT22;55756;45.582;11.484;2023-02-21T09:12:06;13.00;60.90
68766;DHT22;55756;45.582;11.484;2023-02-21T09:14:35;13.10;60.80
68766;DHT22;55756;45.582;11.484;2023-02-21T09:17:05;13.10;60.80
68766;DHT22;55756;45.582;11.484;2023-02-21T09:19:31;13.20;60.60
68766;DHT22;55756;45.582;11.484;2023-02-21T09:21:57;13.30;60.70
68766;DHT22;55756;45.582;11.484;2023-02-21T09:24:26;13.40;60.60
68766;DHT22;55756;45.582;11.484;2023-02-21T09:26:57;13.40;60.50
68766;DHT22;55756;45.582;11.484;2023-02-21T09:29:26;13.40;60.80
68766;DHT22;55756;45.582;11.484;2023-02-21T09:31:52;13.50;60.40
68766;DHT22;55756;45.582;11.484;2023-02-21T09:34:18;13.60;59.70
68766;DHT22;55756;45.582;11.484;2023-02-21T09:36:44;13.60;59.30
68766;DHT22;55756;45.582;11.484;2023-02-21T09:39:09;13.70;59.30
68766;DHT22;55756;45.582;11.484;2023-02-21T09:41:37;13.70;59.20
68766;DHT22;55756;45.582;11.484;2023-02-21T09:44:05;13.80;59.10
68766;DHT22;55756;45.582;11.484;2023-02-21T09:46:41;13.80;59.20
68766;DHT22;55756;45.582;11.484;2023-02-21T09:49:23;13.90;59.00
68766;DHT22;55756;45.582;11.484;2023-02-21T09:51:50;13.90;58.60
68766;DHT22;55756;45.582;11.484;2023-02-21T09:54:25;13.90;59.30
68766;DHT22;55756;45.582;11.484;2023-02-21T09:56:53;14.00;59.00
68766;DHT22;55756;45.582;11.484;2023-02-21T09:59:21;14.00;59.00
68766;DHT22;55756;45.582;11.484;2023-02-21T10:16:01;14.10;58.50
68766;DHT22;55756;45.582;11.484;2023-02-21T10:18:51;14.10;58.70
68766;DHT22;55756;45.582;11.484;2023-02-21T10:21:31;14.20;58.60
68766;DHT22;55756;45.582;11.484;2023-02-21T10:23:59;14.20;58.60
68766;DHT22;55756;45.582;11.484;2023-02-21T10:26:36;14.30;58.40
68766;DHT22;55756;45.582;11.484;2023-02-21T10:29:15;14.30;58.50
68766;DHT22;55756;45.582;11.484;2023-02-21T10:31:43;14.30;58.70
68766;DHT22;55756;45.582;11.484;2023-02-21T10:34:25;14.30;58.80
68766;DHT22;55756;45.582;11.484;2023-02-21T10:36:54;14.30;58.80
68766;DHT22;55756;45.582;11.484;2023-02-21T10:39:29;14.30;58.70
68766;DHT22;55756;45.582;11.484;2023-02-21T10:41:57;14.40;58.30
68766;DHT22;55756;45.582;11.484;2023-02-21T10:44:31;14.40;58.60
68766;DHT22;55756;45.582;11.484;2023-02-21T10:47:00;14.40;58.70
68766;DHT22;55756;45.582;11.484;2023-02-21T10:52:09;14.50;58.80
68766;DHT22;55756;45.582;11.484;2023-02-21T10:54:36;14.50;58.90
68766;DHT22;55756;45.582;11.484;2023-02-21T10:57:04;14.50;59.10
68766;DHT22;55756;45.582;11.484;2023-02-21T10:59:41;14.50;58.80
68766;DHT22;55756;45.582;11.484;2023-02-21T11:04:53;14.50;59.00
68766;DHT22;55756;45.582;11.484;2023-02-21T11:07:19;14.50;59.10
68766;DHT22;55756;45.582;11.484;2023-02-21T11:09:48;14.50;59.30
68766;DHT22;55756;45.582;11.484;2023-02-21T11:14:43;14.60;58.90
68766;DHT22;55756;45.582;11.484;2023-02-21T11:27:34;14.70;58.30
68766;DHT22;55756;45.582;11.484;2023-02-21T11:30:02;14.70;58.70
68766;DHT22;55756;45.582;11.484;2023-02-21T11:32:30;14.70;59.20
68766;DHT22;55756;45.582;11.484;2023-02-21T11:38:03;14.90;58.90
68766;DHT22;55756;45.582;11.484;2023-02-21T11:43:27;14.90;59.10
68766;DHT22;55756;45.582;11.484;2023-02-21T11:51:48;14.90;58.80
68766;DHT22;55756;45.582;11.484;2023-02-21T11:54:15;15.00;58.80
68766;DHT22;55756;45.582;11.484;2023-02-21T11:56:57;15.00;58.30
68766;DHT22;55756;45.582;11.484;2023-02-21T11:59:28;15.00;58.40
68766;DHT22;55756;45.582;11.484;2023-02-21T12:10:46;15.10;58.50
68766;DHT22;55756;45.582;11.484;2023-02-21T12:18:38;15.10;58.50
68766;DHT22;55756;45.582;11.484;2023-02-21T12:31:58;15.10;58.60
68766;DHT22;55756;45.582;11.484;2023-02-21T12:46:16;15.20;58.50
68766;DHT22;55756;45.582;11.484;2023-02-21T12:48:53;15.20;58.70
68766;DHT22;55756;45.582;11.484;2023-02-21T12:54:26;15.30;58.60
68766;DHT22;55756;45.582;11.484;2023-02-21T13:00:24;15.30;58.40
68766;DHT22;55756;45.582;11.484;2023-02-21T13:05:53;15.30;58.50
68766;DHT22;55756;45.582;11.484;2023-02-21T13:08:43;15.30;58.40
68766;DHT22;55756;45.582;11.484;2023-02-21T13:13:57;15.30;58.50
68766;DHT22;55756;45.582;11.484;2023-02-21T13:16:24;15.30;58.70
68766;DHT22;55756;45.582;11.484;2023-02-21T13:18:51;15.30;58.80
68766;DHT22;55756;45.582;11.484;2023-02-21T13:21:35;15.30;58.80
68766;DHT22;55756;45.582;11.484;2023-02-21T13:27:31;15.30;58.50
68766;DHT22;55756;45.582;11.484;2023-02-21T13:30:21;15.40;58.30
68766;DHT22;55756;45.582;11.484;2023-02-21T13:32:57;15.40;58.10
68766;DHT22;55756;45.582;11.484;2023-02-21T13:35:30;15.40;58.30
68766;DHT22;55756;45.582;11.484;2023-02-21T13:37:59;15.40;58.20
68766;DHT22;55756;45.582;11.484;2023-02-21T13:43:02;15.40;58.20
68766;DHT22;55756;45.582;11.484;2023-02-21T13:45:28;15.40;58.30
68766;DHT22;55756;45.582;11.484;2023-02-21T13:53:20;15.40;58.10
68766;DHT22;55756;45.582;11.484;2023-02-21T13:58:40;15.50;57.90
68766;DHT22;55756;45.582;11.484;2023-02-21T14:03:56;15.50;57.70
68766;DHT22;55756;45.582;11.484;2023-02-21T14:06:31;15.50;57.60
68766;DHT22;55756;45.582;11.484;2023-02-21T14:09:01;15.50;57.70
68766;DHT22;55756;45.582;11.484;2023-02-21T14:11:35;15.50;58.00
68766;DHT22;55756;45.582;11.484;2023-02-21T14:14:23;15.50;57.80
68766;DHT22;55756;45.582;11.484;2023-02-21T14:19:47;15.40;57.50
68766;DHT22;55756;45.582;11.484;2023-02-21T14:22:16;15.40;57.30
68766;DHT22;55756;45.582;11.484;2023-02-21T14:24:47;15.40;57.20
68766;DHT22;55756;45.582;11.484;2023-02-21T14:29:44;15.40;58.10
68766;DHT22;55756;45.582;11.484;2023-02-21T14:39:50;15.50;58.10
68766;DHT22;55756;45.582;11.484;2023-02-21T14:51:54;15.50;58.30
68766;DHT22;55756;45.582;11.484;2023-02-21T15:03:16;15.50;57.80
68766;DHT22;55756;45.582;11.484;2023-02-21T15:08:27;15.50;57.90
68766;DHT22;55756;45.582;11.484;2023-02-21T15:10:58;15.40;58.00
68766;DHT22;55756;45.582;11.484;2023-02-21T15:13:34;15.50;57.90
68766;DHT22;55756;45.582;11.484;2023-02-21T15:16:08;15.40;57.80
68766;DHT22;55756;45.582;11.484;2023-02-21T15:18:39;15.40;57.70
68766;DHT22;55756;45.582;11.484;2023-02-21T15:23:42;15.50;57.70
68766;DHT22;55756;45.582;11.484;2023-02-21T15:26:18;15.40;57.90
68766;DHT22;55756;45.582;11.484;2023-02-21T15:28:44;15.40;58.00
68766;DHT22;55756;45.582;11.484;2023-02-21T15:31:11;15.50;57.90
68766;DHT22;55756;45.582;11.484;2023-02-21T15:33:40;15.50;58.00
68766;DHT22;55756;45.582;11.484;2023-02-21T15:36:20;15.50;57.90
68766;DHT22;55756;45.582;11.484;2023-02-21T15:39:03;15.50;58.10
68766;DHT22;55756;45.582;11.484;2023-02-21T15:41:35;15.50;58.10
68766;DHT22;55756;45.582;11.484;2023-02-21T15:44:19;15.50;58.00
68766;DHT22;55756;45.582;11.484;2023-02-21T15:47:07;15.50;57.90
68766;DHT22;55756;45.582;11.484;2023-02-21T15:49:37;15.50;58.00
68766;DHT22;55756;45.582;11.484;2023-02-21T15:52:05;15.50;58.10
68766;DHT22;55756;45.582;11.484;2023-02-21T15:54:33;15.50;58.20
68766;DHT22;55756;45.582;11.484;2023-02-21T15:59:37;15.50;58.10
68766;DHT22;55756;45.582;11.484;2023-02-21T16:02:20;15.50;58.10
68766;DHT22;55756;45.582;11.484;2023-02-21T16:04:49;15.50;58.10
68766;DHT22;55756;45.582;11.484;2023-02-21T16:07:28;15.50;58.20
68766;DHT22;55756;45.582;11.484;2023-02-21T16:10:10;15.40;58.30
68766;DHT22;55756;45.582;11.484;2023-02-21T16:12:42;15.50;58.20
68766;DHT22;55756;45.582;11.484;2023-02-21T16:15:35;15.40;58.20
68766;DHT22;55756;45.582;11.484;2023-02-21T16:18:04;15.50;58.20
68766;DHT22;55756;45.582;11.484;2023-02-21T16:20:34;15.50;58.10
68766;DHT22;55756;45.582;11.484;2023-02-21T16:25:54;15.50;58.10
68766;DHT22;55756;45.582;11.484;2023-02-21T16:28:20;15.50;58.30
68766;DHT22;55756;45.582;11.484;2023-02-21T16:30:47;15.50;58.30
68766;DHT22;55756;45.582;11.484;2023-02-21T16:33:13;15.50;58.30
68766;DHT22;55756;45.582;11.484;2023-02-21T16:35:39;15.40;58.40
68766;DHT22;55756;45.582;11.484;2023-02-21T16:38:05;15.20;59.00
68766;DHT22;55756;45.582;11.484;2023-02-21T16:40:34;15.20;59.20
68766;DHT22;55756;45.582;11.484;2023-02-21T16:43:02;15.30;59.00
68766;DHT22;55756;45.582;11.484;2023-02-21T16:45:29;15.30;58.80
68766;DHT22;55756;45.582;11.484;2023-02-21T16:48:05;15.30;59.10
68766;DHT22;55756;45.582;11.484;2023-02-21T16:50:38;15.30;59.20
68766;DHT22;55756;45.582;11.484;2023-02-21T16:53:04;15.30;59.20
68766;DHT22;55756;45.582;11.484;2023-02-21T16:55:31;15.30;59.00
68766;DHT22;55756;45.582;11.484;2023-02-21T16:58:07;15.30;59.00
68766;DHT22;55756;45.582;11.484;2023-02-21T17:00:35;15.30;58.90
68766;DHT22;55756;45.582;11.484;2023-02-21T17:03:01;15.30;59.20
68766;DHT22;55756;45.582;11.484;2023-02-21T17:05:27;15.30;59.20
68766;DHT22;55756;45.582;11.484;2023-02-21T17:07:54;15.20;59.10
68766;DHT22;55756;45.582;11.484;2023-02-21T17:10:20;15.20;59.40
68766;DHT22;55756;45.582;11.484;2023-02-21T17:12:46;15.20;59.40
68766;DHT22;55756;45.582;11.484;2023-02-21T17:15:13;15.20;59.20
68766;DHT22;55756;45.582;11.484;2023-02-21T17:17:40;15.20;59.00
68766;DHT22;55756;45.582;11.484;2023-02-21T17:20:07;15.20;58.80
68766;DHT22;55756;45.582;11.484;2023-02-21T17:22:32;15.20;58.90
68766;DHT22;55756;45.582;11.484;2023-02-21T17:24:58;15.20;59.20
68766;DHT22;55756;45.582;11.484;2023-02-21T17:27:24;15.20;59.10
68766;DHT22;55756;45.582;11.484;2023-02-21T17:29:50;15.20;58.80
68766;DHT22;55756;45.582;11.484;2023-02-21T17:32:16;15.20;58.80
68766;DHT22;55756;45.582;11.484;2023-02-21T17:34:42;15.30;58.60
68766;DHT22;55756;45.582;11.484;2023-02-21T17:37:08;15.40;58.40
68766;DHT22;55756;45.582;11.484;2023-02-21T17:39:39;15.30;58.40
68766;DHT22;55756;45.582;11.484;2023-02-21T17:42:05;15.30;58.60
68766;DHT22;55756;45.582;11.484;2023-02-21T17:44:31;15.20;58.60
68766;DHT22;55756;45.582;11.484;2023-02-21T17:47:10;15.20;58.60
68766;DHT22;55756;45.582;11.484;2023-02-21T17:49:35;15.20;58.80
68766;DHT22;55756;45.582;11.484;2023-02-21T17:52:01;15.20;58.80
68766;DHT22;55756;45.582;11.484;2023-02-21T17:54:27;15.20;58.90
68766;DHT22;55756;45.582;11.484;2023-02-21T17:56:53;15.20;58.90
68766;DHT22;55756;45.582;11.484;2023-02-21T17:59:19;15.20;58.80
68766;DHT22;55756;45.582;11.484;2023-02-21T18:01:44;15.20;58.80
68766;DHT22;55756;45.582;11.484;2023-02-21T18:04:11;15.30;58.70
68766;DHT22;55756;45.582;11.484;2023-02-21T18:06:40;15.20;59.10
68766;DHT22;55756;45.582;11.484;2023-02-21T18:09:06;15.20;59.30
68766;DHT22;55756;45.582;11.484;2023-02-21T18:11:35;15.10;59.30
68766;DHT22;55756;45.582;11.484;2023-02-21T18:14:02;15.20;59.40
68766;DHT22;55756;45.582;11.484;2023-02-21T18:16:28;15.20;59.20
68766;DHT22;55756;45.582;11.484;2023-02-21T18:18:54;15.20;59.00
68766;DHT22;55756;45.582;11.484;2023-02-21T18:21:19;15.30;58.90
68766;DHT22;55756;45.582;11.484;2023-02-21T18:23:48;15.40;58.70
68766;DHT22;55756;45.582;11.484;2023-02-21T18:26:14;15.40;58.60
68766;DHT22;55756;45.582;11.484;2023-02-21T18:28:40;15.40;58.60
68766;DHT22;55756;45.582;11.484;2023-02-21T18:31:05;15.40;58.50
68766;DHT22;55756;45.582;11.484;2023-02-21T18:33:31;15.40;58.50
68766;DHT22;55756;45.582;11.484;2023-02-21T18:35:58;15.40;58.50
68766;DHT22;55756;45.582;11.484;2023-02-21T18:38:25;15.40;58.50
68766;DHT22;55756;45.582;11.484;2023-02-21T18:40:51;15.40;58.40
68766;DHT22;55756;45.582;11.484;2023-02-21T18:43:27;15.40;58.40